Time;durP1;ratioP1;P1;durP2;ratioP2;P2;SDS_P1;SDS_P2;PMS_P1;PMS_P2;Temp;Humidity;BMP_temperature;BMP_pressure;BME280_temperature;BME280_humidity;BME280_pressure;Samples;Min_cycle;Max_cycle;Signal;HPM_P1;HPM_P2
2021/08/16 00:01:26;;;;;;;6.55;3.28;;;;;;;19.65;89.87;99825.94;5250262;28;20020;-77
2021/08/16 00:03:56;;;;;;;8.15;3.60;;;;;;;19.59;90.73;99823.81;5261281;28;20035;-78
2021/08/16 00:06:27;;;;;;;11.67;3.33;;;;;;;19.63;90.42;99824.41;5248039;28;20068;-78
2021/08/16 00:08:57;;;;;;;5.80;3.20;;;;;;;19.63;91.91;99819.94;5267514;28;20273;-78
2021/08/16 00:11:28;;;;;;;6.38;3.13;;;;;;;19.57;91.85;99809.84;5265565;28;20027;-78
2021/08/16 00:13:58;;;;;;;13.00;4.28;;;;;;;19.52;93.28;99804.09;5246445;28;20058;-78
2021/08/16 00:16:30;;;;;;;7.72;3.50;;;;;;;19.55;93.63;99803.00;5251137;28;20019;-78
2021/08/16 00:19:01;;;;;;;9.95;4.40;;;;;;;19.45;96.33;99797.63;5250115;28;20351;-78
2021/08/16 00:21:32;;;;;;;5.68;3.53;;;;;;;19.50;96.16;99798.09;5250380;28;20077;-79
2021/08/16 00:24:02;;;;;;;10.85;4.10;;;;;;;19.44;97.20;99781.88;5250312;28;20024;-78
2021/08/16 00:26:32;;;;;;;9.30;3.92;;;;;;;19.13;98.21;99778.25;5268602;28;20035;-78
2021/08/16 00:29:02;;;;;;;11.88;4.18;;;;;;;18.95;100.00;99771.81;5249477;28;20027;-78
2021/08/16 00:31:33;;;;;;;8.43;3.58;;;;;;;18.86;99.42;99775.22;5268752;28;20064;-78
2021/08/16 00:34:03;;;;;;;11.37;3.63;;;;;;;18.83;100.00;99769.34;5268162;28;20652;-78
2021/08/16 00:36:33;;;;;;;7.75;3.75;;;;;;;18.97;99.07;99756.63;5248705;28;20371;-78
2021/08/16 00:39:04;;;;;;;9.60;4.20;;;;;;;18.75;100.00;99762.03;5249125;28;20035;-78
2021/08/16 00:41:35;;;;;;;9.95;3.92;;;;;;;18.81;99.16;99756.25;5250452;28;20401;-78
2021/08/16 00:44:09;;;;;;;8.13;3.70;;;;;;;18.70;98.82;99759.88;5250548;28;20482;-78
2021/08/16 00:46:40;;;;;;;6.10;3.58;;;;;;;18.73;99.25;99766.59;5266879;28;20058;-78
2021/08/16 00:49:10;;;;;;;9.32;3.75;;;;;;;18.67;100.00;99774.19;5267427;28;20020;-78
2021/08/16 00:51:41;;;;;;;11.18;3.55;;;;;;;18.54;99.98;99775.34;5267628;28;20069;-78
2021/08/16 00:54:12;;;;;;;7.68;3.47;;;;;;;18.65;98.35;99786.72;5249704;28;20136;-78
2021/08/16 00:56:42;;;;;;;7.70;3.38;;;;;;;19.16;96.48;99793.94;5267651;28;20031;-79
2021/08/16 00:59:14;;;;;;;8.18;3.65;;;;;;;19.30;93.99;99798.09;5267365;28;20028;-78
2021/08/16 01:01:45;;;;;;;9.90;3.60;;;;;;;19.20;94.70;99795.34;5269151;28;20485;-78
2021/08/16 01:04:15;;;;;;;10.10;3.40;;;;;;;19.23;95.34;99797.75;5267898;28;20024;-78
2021/08/16 01:06:46;;;;;;;7.25;3.30;;;;;;;19.20;95.02;99784.75;5249636;28;20433;-78
2021/08/16 01:09:17;;;;;;;8.25;3.47;;;;;;;19.19;95.43;99788.38;5267956;28;20171;-78
2021/08/16 01:11:49;;;;;;;7.38;3.78;;;;;;;19.03;96.00;99787.94;5249492;28;20057;-78
2021/08/16 01:14:20;;;;;;;8.70;3.95;;;;;;;19.04;96.42;99784.31;5268079;28;20031;-78
2021/08/16 01:16:50;;;;;;;8.77;3.60;;;;;;;19.00;96.51;99768.78;5248832;28;20028;-78
2021/08/16 01:19:21;;;;;;;8.45;3.85;;;;;;;18.95;95.58;99774.47;5268244;28;20020;-78
2021/08/16 01:21:52;;;;;;;11.45;4.20;;;;;;;18.59;97.48;99766.06;5249467;28;20485;-78
2021/08/16 01:24:22;;;;;;;8.07;3.65;;;;;;;18.58;97.00;99766.16;5268598;28;20027;-78
2021/08/16 01:26:53;;;;;;;8.43;3.83;;;;;;;18.03;99.21;99760.94;5249460;28;20298;-78
2021/08/16 01:29:23;;;;;;;7.68;3.60;;;;;;;18.21;97.49;99748.91;5249971;28;20026;-78
2021/08/16 01:31:53;;;;;;;7.72;3.80;;;;;;;18.04;100.00;99750.22;5249224;28;20131;-78
2021/08/16 01:34:24;;;;;;;9.95;3.78;;;;;;;18.02;99.87;99743.38;5252439;28;20024;-78
2021/08/16 01:36:54;;;;;;;5.43;3.30;;;;;;;18.07;99.33;99744.72;5252531;28;20024;-78
2021/08/16 01:39:26;;;;;;;9.93;3.83;;;;;;;17.90;100.00;99733.75;5270977;28;20074;-78
2021/08/16 01:41:56;;;;;;;8.27;3.88;;;;;;;17.86;99.90;99730.50;5254568;28;20034;-78
2021/08/16 01:44:26;;;;;;;9.25;4.07;;;;;;;17.81;100.00;99729.22;5254742;28;20091;-78
2021/08/16 01:46:56;;;;;;;7.30;3.65;;;;;;;17.97;99.48;99729.69;5271243;28;20028;-78
2021/08/16 01:49:27;;;;;;;7.57;3.38;;;;;;;17.78;100.00;99735.56;5271701;28;20059;-78
2021/08/16 01:51:57;;;;;;;7.75;3.33;;;;;;;17.60;100.00;99731.72;5272528;28;20350;-78
2021/08/16 01:54:27;;;;;;;7.88;3.80;;;;;;;17.69;100.00;99732.81;5268987;28;20032;-78
2021/08/16 01:56:58;;;;;;;8.20;3.92;;;;;;;17.77;99.59;99735.69;5254092;28;20035;-78
2021/08/16 01:59:28;;;;;;;8.57;3.33;;;;;;;17.71;99.79;99722.97;5273293;28;20032;-78
2021/08/16 02:01:58;;;;;;;8.85;3.55;;;;;;;17.71;100.00;99738.81;5272439;28;20333;-78
2021/08/16 02:04:28;;;;;;;7.77;3.47;;;;;;;17.74;99.35;99746.50;5272290;28;20035;-78
2021/08/16 02:06:59;;;;;;;8.48;3.60;;;;;;;17.53;100.00;99741.09;5271475;28;20274;-78
2021/08/16 02:09:29;;;;;;;9.48;3.58;;;;;;;17.57;99.80;99747.81;5271795;28;20089;-77
2021/08/16 02:11:59;;;;;;;4.63;3.05;;;;;;;17.59;100.00;99751.19;5270710;28;20016;-78
2021/08/16 02:14:30;;;;;;;7.80;3.73;;;;;;;17.60;99.56;99760.78;5250694;28;20104;-77
2021/08/16 02:17:00;;;;;;;7.72;3.17;;;;;;;17.59;100.00;99760.91;5268395;28;20300;-78
2021/08/16 02:19:30;;;;;;;8.23;3.55;;;;;;;17.86;97.63;99772.81;5267600;28;20084;-77
2021/08/16 02:22:01;;;;;;;11.40;3.58;;;;;;;18.08;97.26;99787.84;5268312;28;20111;-77
2021/08/16 02:24:31;;;;;;;8.70;3.80;;;;;;;18.08;97.94;99788.69;5268842;28;20039;-77
2021/08/16 02:27:01;;;;;;;9.27;3.50;;;;;;;18.08;98.01;99790.50;5249690;28;20350;-77
2021/08/16 02:29:32;;;;;;;9.48;3.50;;;;;;;18.03;98.79;99792.66;5268441;28;20028;-78
2021/08/16 02:32:02;;;;;;;7.50;3.60;;;;;;;17.98;98.79;99794.84;5250479;28;20027;-78
2021/08/16 02:34:33;;;;;;;11.07;3.58;;;;;;;18.10;98.15;99799.16;5248989;28;20039;-78
2021/08/16 02:37:03;;;;;;;6.55;3.10;;;;;;;18.23;97.26;99792.78;5267472;28;20039;-78
2021/08/16 02:39:34;;;;;;;9.68;3.35;;;;;;;18.16;97.29;99785.47;5248833;28;20027;-78
2021/08/16 02:42:04;;;;;;;6.63;3.08;;;;;;;18.17;98.12;99789.78;5267877;28;20047;-78
2021/08/16 02:44:35;;;;;;;7.03;3.17;;;;;;;18.16;98.15;99788.09;5267841;28;20019;-78
2021/08/16 02:47:05;;;;;;;6.07;3.25;;;;;;;18.24;97.39;99790.97;5267555;28;20255;-78
2021/08/16 02:49:35;;;;;;;7.30;3.15;;;;;;;18.32;96.57;99793.91;5268199;28;20024;-78
2021/08/16 02:52:06;;;;;;;8.20;3.13;;;;;;;18.24;97.00;99798.91;5268065;28;20108;-78
2021/08/16 02:54:36;;;;;;;8.75;3.15;;;;;;;18.19;97.71;99795.78;5268854;28;20020;-78
2021/08/16 02:57:07;;;;;;;5.82;2.53;;;;;;;18.07;98.21;99796.75;5249674;28;20197;-78
2021/08/16 02:59:37;;;;;;;7.03;2.70;;;;;;;18.05;98.10;99796.03;5249874;28;20055;-78
2021/08/16 03:02:08;;;;;;;10.63;3.20;;;;;;;17.95;98.49;99793.25;5250382;28;20164;-78
2021/08/16 03:04:38;;;;;;;6.57;3.13;;;;;;;17.98;98.04;99790.38;5268586;28;20668;-78
2021/08/16 03:07:09;;;;;;;9.43;2.90;;;;;;;17.93;98.58;99794.34;5267976;28;20047;-78
2021/08/16 03:09:40;;;;;;;8.25;2.80;;;;;;;17.82;98.65;99802.28;5268349;28;20028;-78
2021/08/16 03:12:11;;;;;;;6.97;2.95;;;;;;;17.71;100.00;99812.81;5268589;28;20107;-78
2021/08/16 03:14:41;;;;;;;5.95;3.13;;;;;;;17.74;100.00;99809.94;5267827;28;20087;-78
2021/08/16 03:17:11;;;;;;;6.78;3.35;;;;;;;17.70;100.00;99811.13;5245979;28;20204;-78
2021/08/16 03:19:42;;;;;;;7.20;3.35;;;;;;;17.74;100.00;99816.06;5268007;28;20115;-78
2021/08/16 03:22:12;;;;;;;5.93;3.28;;;;;;;17.84;100.00;99810.94;5268205;28;20024;-78
2021/08/16 03:24:42;;;;;;;9.00;3.47;;;;;;;17.95;100.00;99816.19;5250035;28;20115;-78
2021/08/16 03:27:12;;;;;;;9.87;3.57;;;;;;;18.26;99.54;99818.13;5266451;28;20290;-78
2021/08/16 03:29:43;;;;;;;7.00;3.55;;;;;;;18.24;99.94;99820.06;5267432;28;20738;-78
2021/08/16 03:32:13;;;;;;;10.40;4.25;;;;;;;18.44;99.65;99822.00;5248960;28;20038;-78
2021/08/16 03:34:43;;;;;;;10.30;4.00;;;;;;;18.42;99.16;99818.66;5249707;28;20126;-78
2021/08/16 03:37:14;;;;;;;9.20;4.47;;;;;;;18.53;99.14;99823.94;5247750;28;20235;-78
2021/08/16 03:39:44;;;;;;;9.80;4.13;;;;;;;18.45;99.45;99816.59;5267265;28;20020;-78
2021/08/16 03:42:14;;;;;;;9.25;4.05;;;;;;;18.42;99.69;99816.84;5268057;28;20024;-78
2021/08/16 03:44:45;;;;;;;11.32;4.40;;;;;;;18.52;99.28;99812.50;5267910;28;20028;-78
2021/08/16 03:47:15;;;;;;;10.50;4.30;;;;;;;18.52;98.89;99816.97;5249161;28;20020;-78
2021/08/16 03:49:45;;;;;;;9.90;4.55;;;;;;;18.65;98.91;99817.66;5268304;28;20667;-79
2021/08/16 03:52:15;;;;;;;9.45;4.30;;;;;;;18.65;98.79;99807.09;5249985;28;20024;-78
2021/08/16 03:54:46;;;;;;;8.95;4.00;;;;;;;18.70;98.52;99811.00;5267861;28;20492;-78
2021/08/16 03:57:16;;;;;;;11.30;4.00;;;;;;;18.69;96.64;99804.03;5249950;28;20024;-78
2021/08/16 03:59:46;;;;;;;7.25;3.90;;;;;;;18.72;95.69;99797.66;5268166;28;20382;-78
2021/08/16 04:02:17;;;;;;;10.65;4.13;;;;;;;18.65;95.83;99799.13;5249625;28;20401;-78
2021/08/16 04:04:47;;;;;;;8.60;4.35;;;;;;;18.73;95.88;99795.72;5249309;28;20114;-78
2021/08/16 04:07:18;;;;;;;12.80;3.88;;;;;;;18.51;96.95;99807.34;5266769;28;20434;-78
2021/08/16 04:09:49;;;;;;;8.43;4.22;;;;;;;18.53;96.80;99802.75;5249629;28;20107;-78
2021/08/16 04:12:20;;;;;;;11.35;4.07;;;;;;;18.59;97.01;99807.56;5248907;28;20027;-78
2021/08/16 04:14:50;;;;;;;10.35;4.40;;;;;;;18.45;97.62;99805.16;5267593;28;20111;-78
2021/08/16 04:17:20;;;;;;;8.47;4.13;;;;;;;18.48;97.08;99805.78;5267668;28;20332;-78
2021/08/16 04:19:50;;;;;;;7.88;4.20;;;;;;;18.36;97.97;99805.91;5266511;28;20358;-78
2021/08/16 04:22:21;;;;;;;9.10;3.77;;;;;;;18.34;98.10;99805.19;5267643;28;20047;-78
2021/08/16 04:24:52;;;;;;;7.97;3.90;;;;;;;18.57;97.05;99809.50;5266917;28;20270;-78
2021/08/16 04:27:23;;;;;;;8.65;4.10;;;;;;;18.51;95.86;99804.69;5249304;28;20574;-78
2021/08/16 04:29:53;;;;;;;9.93;4.53;;;;;;;18.41;96.21;99801.94;5266964;28;20056;-78
2021/08/16 04:32:23;;;;;;;10.25;3.97;;;;;;;18.43;96.18;99807.09;5267877;28;20024;-78
2021/08/16 04:34:53;;;;;;;9.10;4.10;;;;;;;18.46;95.34;99802.41;5266649;28;20028;-78
2021/08/16 04:37:24;;;;;;;7.90;3.60;;;;;;;18.28;96.39;99810.94;5265902;28;20763;-78
2021/08/16 04:39:54;;;;;;;7.05;3.67;;;;;;;18.36;94.82;99796.16;5266854;28;20199;-78
2021/08/16 04:42:24;;;;;;;8.07;4.05;;;;;;;18.19;96.32;99801.09;5266854;28;20024;-78
2021/08/16 04:44:55;;;;;;;9.10;4.00;;;;;;;18.27;96.54;99798.66;5249301;28;20474;-78
2021/08/16 04:47:25;;;;;;;8.35;3.95;;;;;;;18.42;95.20;99802.75;5264085;28;20281;-78
2021/08/16 04:49:56;;;;;;;10.52;4.28;;;;;;;18.47;95.07;99805.88;5250172;28;20024;-78
2021/08/16 04:52:27;;;;;;;9.15;4.72;;;;;;;18.66;93.13;99798.16;5268774;28;20044;-78
2021/08/16 04:54:57;;;;;;;7.22;4.50;;;;;;;18.71;92.17;99796.81;5267790;28;20104;-78
2021/08/16 04:57:33;;;;;;;9.68;4.70;;;;;;;18.57;93.16;99798.91;5249904;28;20112;-78
2021/08/16 05:00:06;;;;;;;8.85;5.15;;;;;;;18.65;91.88;99799.13;5266621;28;20016;-78
2021/08/16 05:02:37;;;;;;;8.63;5.00;;;;;;;18.83;90.81;99796.69;5268942;28;20043;-78
2021/08/16 05:05:10;;;;;;;8.85;4.88;;;;;;;19.18;88.63;99799.94;5267209;28;20085;-78
2021/08/16 05:07:47;;;;;;;7.57;4.53;;;;;;;19.98;85.73;99793.06;5267516;28;20119;-78
2021/08/16 05:10:20;;;;;;;9.50;4.90;;;;;;;20.90;80.78;99802.50;5271941;28;20271;-78
2021/08/16 05:12:52;;;;;;;5.75;4.32;;;;;;;20.72;81.58;99807.59;5272308;28;20093;-78
2021/08/16 05:15:23;;;;;;;7.50;4.28;;;;;;;20.09;83.47;99806.28;5271572;28;20529;-78
2021/08/16 05:17:53;;;;;;;8.52;4.50;;;;;;;19.50;85.88;99806.06;5269360;28;20047;-78
2021/08/16 05:20:23;;;;;;;7.97;4.75;;;;;;;19.22;87.60;99804.00;5252547;28;20161;-78
2021/08/16 05:22:54;;;;;;;8.70;5.28;;;;;;;19.04;88.40;99810.81;5270255;28;20050;-78
2021/08/16 05:25:24;;;;;;;8.57;5.32;;;;;;;19.59;86.55;99804.44;5269603;28;20047;-78
2021/08/16 05:27:54;;;;;;;7.68;5.03;;;;;;;20.23;83.29;99817.38;5270257;28;20404;-78
2021/08/16 05:30:25;;;;;;;8.57;5.20;;;;;;;20.96;80.82;99809.91;5251989;28;20085;-78
2021/08/16 05:32:55;;;;;;;10.88;4.88;;;;;;;21.51;77.67;99810.06;5252965;28;20608;-78
2021/08/16 05:35:26;;;;;;;6.40;4.50;;;;;;;22.36;76.12;99818.81;5271675;28;20032;-78
2021/08/16 05:37:57;;;;;;;6.50;4.43;;;;;;;23.29;72.83;99819.25;5272156;28;20266;-78
2021/08/16 05:40:27;;;;;;;6.32;4.00;;;;;;;25.67;66.02;99809.03;5252925;28;20070;-79
2021/08/16 05:42:58;;;;;;;7.00;3.75;;;;;;;24.20;69.09;99822.28;5253894;28;20462;-78
2021/08/16 05:45:28;;;;;;;7.53;3.97;;;;;;;22.92;73.08;99826.53;5252944;28;20093;-78
2021/08/16 05:47:58;;;;;;;7.38;3.97;;;;;;;21.59;76.98;99839.44;5261733;28;20377;-78
2021/08/16 05:50:29;;;;;;;9.20;4.43;;;;;;;20.82;80.19;99831.53;5268353;28;20020;-78
2021/08/16 05:53:00;;;;;;;8.95;4.90;;;;;;;20.14;83.35;99831.44;5268999;28;20551;-78
2021/08/16 05:55:30;;;;;;;6.85;4.65;;;;;;;20.04;84.60;99830.56;5267953;28;20058;-78
2021/08/16 05:58:00;;;;;;;8.73;4.90;;;;;;;19.66;85.95;99835.59;5267859;28;20024;-77
2021/08/16 06:00:30;;;;;;;9.40;4.80;;;;;;;19.54;86.46;99831.31;5268935;28;20039;-78
2021/08/16 06:03:01;;;;;;;8.25;5.00;;;;;;;19.80;85.20;99837.91;5268992;28;20020;-77
2021/08/16 06:05:31;;;;;;;7.55;5.00;;;;;;;19.94;84.86;99826.97;5269077;28;20028;-78
2021/08/16 06:08:02;;;;;;;9.73;4.97;;;;;;;20.06;84.51;99828.59;5249532;28;20032;-78
2021/08/16 06:10:32;;;;;;;9.30;4.88;;;;;;;20.10;85.04;99824.72;5268622;28;20079;-78
2021/08/16 06:13:03;;;;;;;12.15;4.60;;;;;;;20.58;83.54;99819.56;5269303;28;20024;-78
2021/08/16 06:15:33;;;;;;;9.02;4.38;;;;;;;20.57;83.74;99813.44;5270095;28;20039;-78
2021/08/16 06:18:03;;;;;;;8.70;3.92;;;;;;;20.81;83.08;99811.25;5273463;28;20303;-79
2021/08/16 06:20:34;;;;;;;8.05;4.20;;;;;;;20.79;80.98;99808.75;5255091;28;20048;-77
2021/08/16 06:23:04;;;;;;;7.33;4.03;;;;;;;21.03;80.24;99811.06;5255138;28;20039;-79
2021/08/16 06:25:34;;;;;;;12.55;4.05;;;;;;;21.15;79.04;99812.56;5276472;28;20346;-79
2021/08/16 06:28:04;;;;;;;8.33;3.90;;;;;;;21.44;78.94;99819.56;5255356;28;20025;-79
2021/08/16 06:30:35;;;;;;;10.68;3.55;;;;;;;21.34;77.91;99809.91;5255430;28;20310;-77
2021/08/16 06:33:05;;;;;;;9.10;3.53;;;;;;;21.29;77.65;99801.53;5253538;28;20119;-78
2021/08/16 06:35:36;;;;;;;7.32;3.40;;;;;;;20.98;79.64;99822.09;5270940;28;20035;-79
2021/08/16 06:38:19;;;;;;;8.73;3.40;;;;;;;20.67;79.94;99814.28;5271812;28;20328;-79
2021/08/16 06:40:52;;;;;;;7.63;3.53;;;;;;;20.52;81.01;99820.13;5273464;28;20413;-78
2021/08/16 06:43:25;;;;;;;9.63;4.05;;;;;;;20.65;80.40;99810.94;5254557;28;20024;-77
2021/08/16 06:45:56;;;;;;;8.73;3.60;;;;;;;21.15;78.79;99810.78;5253268;28;20024;-79
2021/08/16 06:48:27;;;;;;;7.55;3.47;;;;;;;22.93;71.33;99801.56;5272688;28;20028;-77
2021/08/16 06:50:57;;;;;;;10.88;3.35;;;;;;;24.71;65.52;99794.66;5254737;28;20084;-78
2021/08/16 06:53:27;;;;;;;8.77;3.22;;;;;;;26.16;62.78;99791.91;5253206;28;20502;-78
2021/08/16 06:55:58;;;;;;;7.97;3.20;;;;;;;27.18;61.00;99788.91;5270291;28;20036;-79
2021/08/16 06:58:28;;;;;;;9.50;2.95;;;;;;;27.35;58.20;99799.34;5270536;28;20027;-80
2021/08/16 07:00:59;;;;;;;8.35;3.40;;;;;;;27.07;58.96;99795.47;5266652;28;20107;-80
2021/08/16 07:03:30;;;;;;;8.52;3.20;;;;;;;26.43;59.95;99788.75;5252295;28;20020;-78
2021/08/16 07:06:00;;;;;;;9.38;2.95;;;;;;;27.76;57.07;99791.81;5251631;28;20294;-79
2021/08/16 07:08:30;;;;;;;8.17;2.77;;;;;;;28.21;55.89;99776.38;5252381;28;20203;-80
2021/08/16 07:11:00;;;;;;;4.60;2.67;;;;;;;27.75;57.08;99785.59;5252318;28;20415;-79
2021/08/16 07:13:31;;;;;;;6.67;2.90;;;;;;;25.38;62.42;99800.66;5270561;28;20277;-80
2021/08/16 07:16:02;;;;;;;7.43;2.88;;;;;;;24.71;64.76;99800.00;5269789;28;20651;-78
2021/08/16 07:18:34;;;;;;;5.97;2.47;;;;;;;25.65;61.68;99797.66;5268162;28;20024;-79
2021/08/16 07:21:05;;;;;;;11.85;2.78;;;;;;;24.07;64.76;99800.50;5269276;28;20075;-79
2021/08/16 07:23:37;;;;;;;7.28;2.75;;;;;;;23.36;66.95;99806.16;5269555;28;20032;-79
2021/08/16 07:26:07;;;;;;;8.68;2.85;;;;;;;23.08;67.66;99805.38;5249858;28;20024;-79
2021/08/16 07:28:38;;;;;;;7.97;2.90;;;;;;;23.67;67.54;99807.41;5249616;28;20036;-78
2021/08/16 07:31:08;;;;;;;8.38;3.05;;;;;;;24.19;66.33;99799.25;5268229;28;20762;-79
2021/08/16 07:33:39;;;;;;;7.05;2.67;;;;;;;24.67;64.41;99796.81;5269126;28;20513;-78
2021/08/16 07:36:09;;;;;;;9.90;3.00;;;;;;;25.49;63.17;99803.81;5268430;28;20463;-79
2021/08/16 07:38:40;;;;;;;9.20;3.05;;;;;;;25.06;63.65;99805.94;5268619;28;20027;-79
2021/08/16 07:41:10;;;;;;;7.33;2.67;;;;;;;24.65;64.57;99806.84;5250898;28;20028;-78
2021/08/16 07:43:40;;;;;;;9.83;3.00;;;;;;;23.60;67.00;99801.84;5269515;28;20274;-78
2021/08/16 07:46:11;;;;;;;8.40;3.23;;;;;;;23.75;67.34;99810.97;5250980;28;20270;-78
2021/08/16 07:48:41;;;;;;;11.40;3.03;;;;;;;23.31;67.62;99803.94;5250188;28;20286;-79
2021/08/16 07:51:12;;;;;;;12.03;3.07;;;;;;;22.73;69.62;99810.66;5249697;28;20850;-78
2021/08/16 07:53:44;;;;;;;10.70;3.15;;;;;;;23.21;68.94;99808.50;5269036;28;20266;-79
2021/08/16 07:56:14;;;;;;;10.75;3.50;;;;;;;23.13;69.24;99811.09;5268943;28;20039;-77
2021/08/16 07:58:44;;;;;;;7.30;2.88;;;;;;;24.76;64.70;99803.84;5267864;28;20478;-79
2021/08/16 08:01:15;;;;;;;8.40;2.67;;;;;;;23.46;66.97;99809.56;5268338;28;20390;-79
2021/08/16 08:03:45;;;;;;;11.32;3.25;;;;;;;22.93;68.81;99812.22;5263978;28;20223;-78
2021/08/16 08:06:17;;;;;;;9.13;3.23;;;;;;;22.31;70.61;99819.25;5268133;28;20032;-78
2021/08/16 08:08:47;;;;;;;10.65;3.25;;;;;;;22.51;70.42;99822.69;5250399;28;20297;-78
2021/08/16 08:11:17;;;;;;;8.47;3.30;;;;;;;22.38;71.05;99830.13;5250819;28;20024;-79
2021/08/16 08:13:48;;;;;;;9.30;3.37;;;;;;;23.44;69.10;99823.06;5251357;28;20286;-79
2021/08/16 08:16:18;;;;;;;8.52;3.22;;;;;;;24.77;64.47;99826.94;5250614;28;20639;-79
2021/08/16 08:18:48;;;;;;;8.25;3.00;;;;;;;24.62;65.72;99825.03;5249772;28;20027;-79
2021/08/16 08:21:19;;;;;;;15.02;3.50;;;;;;;24.40;64.67;99818.38;5269620;28;20063;-78
2021/08/16 08:23:51;;;;;;;9.77;3.50;;;;;;;24.95;64.28;99819.63;5250310;28;20024;-78
2021/08/16 08:26:21;;;;;;;8.55;2.75;;;;;;;27.54;58.70;99803.38;5249929;28;20020;-78
2021/08/16 08:28:51;;;;;;;9.77;3.03;;;;;;;27.30;58.37;99814.31;5258775;28;20382;-79
2021/08/16 08:31:22;;;;;;;11.30;3.10;;;;;;;28.23;56.42;99806.59;5245954;28;20020;-78
2021/08/16 08:33:53;;;;;;;9.52;3.30;;;;;;;29.53;54.22;99813.59;5264450;28;20321;-79
2021/08/16 08:36:23;;;;;;;9.63;3.08;;;;;;;29.43;53.76;99829.22;5248234;28;20023;-81
2021/08/16 08:38:54;;;;;;;8.75;3.30;;;;;;;29.30;53.86;99827.25;5245865;28;20032;-80
2021/08/16 08:41:26;;;;;;;7.73;2.73;;;;;;;28.29;56.25;99826.53;5245416;28;20047;-79
2021/08/16 08:43:58;;;;;;;6.15;2.88;;;;;;;28.38;56.70;99845.09;5266705;28;20357;-81
2021/08/16 08:46:28;;;;;;;12.60;3.58;;;;;;;25.35;61.37;99847.31;5262083;28;20023;-78
2021/08/16 08:48:59;;;;;;;8.32;3.15;;;;;;;24.60;63.70;99845.75;5266400;28;20039;-79
2021/08/16 08:51:29;;;;;;;9.05;3.13;;;;;;;23.66;66.04;99849.25;5266948;28;20028;-78
2021/08/16 08:53:59;;;;;;;8.82;3.22;;;;;;;22.90;68.35;99859.66;5247739;28;20048;-77
2021/08/16 08:56:31;;;;;;;10.10;3.73;;;;;;;22.15;71.23;99850.13;5247438;28;20436;-79
2021/08/16 08:59:01;;;;;;;11.98;3.83;;;;;;;22.32;71.15;99858.22;5247350;28;20379;-78
2021/08/16 09:01:32;;;;;;;9.20;3.80;;;;;;;22.01;72.36;99858.56;5248375;28;20083;-78
2021/08/16 09:04:02;;;;;;;9.70;3.90;;;;;;;21.52;73.60;99867.59;5265663;28;20040;-79
2021/08/16 09:06:38;;;;;;;13.05;3.38;;;;;;;21.72;72.87;99857.81;5266616;28;20120;-79
2021/08/16 09:09:08;;;;;;;;;;;;;;;21.64;73.97;99855.00;5246984;28;20257;-79
2021/08/16 09:11:42;;;;;;;10.80;3.83;;;;;;;21.82;73.86;99854.16;5266274;28;20000;-78
2021/08/16 09:14:12;;;;;;;14.23;4.10;;;;;;;21.85;73.63;99864.50;5247057;28;20028;-77
2021/08/16 09:16:46;;;;;;;10.60;3.42;;;;;;;21.70;73.09;99865.91;5266085;28;20031;-78
2021/08/16 09:19:17;;;;;;;10.57;3.70;;;;;;;21.50;73.71;99869.53;5263970;28;20290;-79
2021/08/16 09:22:00;;;;;;;14.15;4.22;;;;;;;21.57;73.32;99861.84;5264798;28;20032;-78
2021/08/16 09:24:34;;;;;;;11.55;3.38;;;;;;;21.67;73.47;99854.72;5260746;28;20044;-78
2021/08/16 09:27:06;;;;;;;11.80;3.72;;;;;;;21.82;73.69;99855.97;5264138;28;20493;-79
2021/08/16 09:29:48;;;;;;;9.98;3.65;;;;;;;21.56;72.82;99849.53;5246438;28;20101;-78
2021/08/16 09:32:29;;;;;;;11.10;3.72;;;;;;;21.59;73.13;99855.38;5265204;28;20028;-78
2021/08/16 09:35:14;;;;;;;10.60;3.53;;;;;;;22.24;72.39;99851.94;5260422;28;20032;-77
2021/08/16 09:37:54;;;;;;;12.00;3.47;;;;;;;23.06;69.43;99849.16;5246961;28;20024;-78
2021/08/16 09:40:24;;;;;;;9.90;3.58;;;;;;;23.28;68.40;99856.75;5245950;28;20035;-79
2021/08/16 09:42:55;;;;;;;9.20;3.30;;;;;;;22.92;69.28;99863.00;5263612;28;20031;-78
2021/08/16 09:45:30;;;;;;;7.72;3.50;;;;;;;22.92;68.76;99858.53;5244586;28;20591;-79
2021/08/16 09:48:02;;;;;;;9.35;3.90;;;;;;;22.96;69.05;99859.88;5259560;28;20028;-77
2021/08/16 09:50:46;;;;;;;10.55;3.40;;;;;;;23.04;69.18;99851.97;5265882;28;20524;-78
2021/08/16 09:53:19;;;;;;;8.50;3.50;;;;;;;22.62;69.44;99859.81;5247406;28;20036;-78
2021/08/16 09:55:52;;;;;;;11.48;3.25;;;;;;;23.22;67.53;99844.03;5267834;28;20047;-76
2021/08/16 09:58:22;;;;;;;9.13;3.72;;;;;;;23.59;66.73;99845.53;5250791;28;20023;-78
2021/08/16 10:00:53;;;;;;;11.40;3.15;;;;;;;23.97;67.29;99837.19;5250393;28;20119;-79
2021/08/16 10:03:38;;;;;;;10.15;3.60;;;;;;;24.39;65.05;99842.59;5249029;28;20031;-79
2021/08/16 10:06:14;;;;;;;;;;;;;;;24.40;63.45;99842.44;5263105;28;20032;-80
2021/08/16 10:08:55;;;;;;;8.60;3.05;;;;;;;23.94;64.09;99845.50;5249041;28;19976;-79
2021/08/16 10:11:25;;;;;;;12.25;3.15;;;;;;;23.31;65.47;99846.63;5248465;28;20437;-79
2021/08/16 10:13:56;;;;;;;8.75;3.25;;;;;;;22.89;67.66;99836.66;5248604;28;20111;-78
2021/08/16 10:16:31;;;;;;;10.80;3.63;;;;;;;22.49;67.97;99854.81;5266597;28;20032;-78
2021/08/16 10:19:04;;;;;;;8.40;3.50;;;;;;;22.42;69.31;99844.91;5227004;28;1090324;-78
2021/08/16 10:21:38;;;;;;;6.40;3.20;;;;;;;22.34;68.50;99844.75;5269379;28;20494;-79
2021/08/16 10:24:17;;;;;;;8.48;3.33;;;;;;;22.63;68.73;99842.84;5249279;28;20089;-79
2021/08/16 10:27:05;;;;;;;11.65;3.50;;;;;;;22.68;68.58;99834.22;5268401;28;20036;-79
2021/08/16 10:29:39;;;;;;;8.68;3.55;;;;;;;22.58;69.34;99842.44;5265451;28;20044;-78
2021/08/16 10:32:28;;;;;;;7.68;3.22;;;;;;;22.20;68.80;99839.88;5267907;28;20131;-79
2021/08/16 10:35:11;;;;;;;8.48;3.10;;;;;;;21.96;69.03;99847.53;5247699;28;20078;-77
2021/08/16 10:37:45;;;;;;;6.80;3.10;;;;;;;21.87;69.88;99849.22;5253521;28;20036;-78
2021/08/16 10:40:25;;;;;;;9.00;3.42;;;;;;;21.92;70.33;99843.50;5255119;28;20031;-79
2021/08/16 10:43:07;;;;;;;7.18;3.30;;;;;;;22.02;70.83;99828.31;5251507;28;20063;-77
2021/08/16 10:45:47;;;;;;;6.82;3.30;;;;;;;22.03;70.28;99814.88;5271614;28;20028;-79
2021/08/16 10:48:24;;;;;;;11.07;3.50;;;;;;;22.24;69.77;99822.66;5249364;28;20032;-79
2021/08/16 10:51:14;;;;;;;11.77;3.40;;;;;;;22.23;70.01;99826.31;5250893;28;20020;-78
2021/08/16 10:53:49;;;;;;;8.80;3.30;;;;;;;22.28;69.83;99818.72;5267713;28;20091;-79
2021/08/16 10:56:23;;;;;;;8.63;3.20;;;;;;;22.46;70.11;99819.63;5267875;28;20032;-79
2021/08/16 10:58:54;;;;;;;8.57;3.65;;;;;;;22.39;70.23;99815.91;5250416;28;20020;-79
2021/08/16 11:01:36;;;;;;;9.10;3.58;;;;;;;22.21;69.97;99822.94;5267804;28;20389;-77
2021/08/16 11:04:08;;;;;;;10.15;3.28;;;;;;;21.92;70.10;99816.88;5263779;28;20084;-77
2021/08/16 11:06:52;;;;;;;9.68;3.35;;;;;;;21.90;71.41;99813.53;5265829;28;20432;-78
2021/08/16 11:09:25;;;;;;;7.68;3.30;;;;;;;21.67;71.63;99815.66;5267878;28;20538;-79
2021/08/16 11:12:10;;;;;;;10.30;3.38;;;;;;;21.74;71.51;99821.25;5266757;28;20031;-78
2021/08/16 11:14:42;;;;;;;11.65;3.65;;;;;;;21.68;71.99;99814.69;5267632;28;20287;-79
2021/08/16 11:17:12;;;;;;;9.88;3.90;;;;;;;21.54;72.80;99819.59;5256568;28;20516;-78
2021/08/16 11:19:45;;;;;;;9.53;3.93;;;;;;;21.42;71.40;99804.75;5265980;28;20115;-78
2021/08/16 11:22:17;;;;;;;10.50;4.30;;;;;;;21.56;71.05;99812.28;5248535;28;20349;-78
2021/08/16 11:24:47;;;;;;;9.13;4.40;;;;;;;21.51;71.75;99807.41;5266241;28;20024;-79
2021/08/16 11:27:26;;;;;;;9.50;4.40;;;;;;;21.43;71.73;99806.44;5247971;28;20036;-80
2021/08/16 11:29:59;;;;;;;10.65;4.30;;;;;;;21.27;72.33;99803.50;5249428;28;20103;-78
2021/08/16 11:32:32;;;;;;;11.60;4.15;;;;;;;21.40;72.85;99806.72;5244628;28;20031;-79
2021/08/16 11:35:04;;;;;;;11.27;4.10;;;;;;;21.48;72.03;99810.34;5266857;28;20016;-79
2021/08/16 11:37:39;;;;;;;10.50;4.07;;;;;;;21.43;72.05;99811.75;5248368;28;20390;-79
2021/08/16 11:40:10;;;;;;;9.63;4.50;;;;;;;21.41;71.59;99811.88;5265732;28;20050;-79
2021/08/16 11:42:40;;;;;;;10.00;4.40;;;;;;;21.35;73.07;99819.56;5265597;28;20024;-79
2021/08/16 11:45:15;;;;;;;9.40;4.18;;;;;;;21.44;73.48;99814.25;5266168;28;20073;-80
2021/08/16 11:47:48;;;;;;;7.60;3.97;;;;;;;21.29;72.41;99812.16;5265479;28;20126;-79
2021/08/16 11:50:21;;;;;;;9.25;4.40;;;;;;;21.47;72.31;99805.16;5265129;28;20020;-79
2021/08/16 11:52:54;;;;;;;8.27;4.05;;;;;;;21.59;72.48;99804.03;5266141;28;20024;-79